createdAt,value
2022-12-02T00:04:26.363Z,11.48
2022-12-02T00:09:37.829Z,13.32
2022-12-02T00:14:45.662Z,13.65
2022-12-02T00:19:51.977Z,13.82
2022-12-02T00:24:59.657Z,12.02
2022-12-02T00:30:06.653Z,11.30
2022-12-02T00:35:13.065Z,10.43
2022-12-02T00:40:21.022Z,11.93
2022-12-02T00:45:44.709Z,11.27
2022-12-02T00:50:51.282Z,11.88
2022-12-02T00:55:58.992Z,13.48
2022-12-02T01:01:05.538Z,12.90
2022-12-02T01:06:12.161Z,11.18
2022-12-02T01:11:20.099Z,11.23
2022-12-02T01:16:26.318Z,11.60
2022-12-02T01:21:32.687Z,11.57
2022-12-02T01:26:40.651Z,9.63
2022-12-02T01:31:46.898Z,9.90
2022-12-02T01:36:53.015Z,10.32
2022-12-02T01:42:02.126Z,10.38
2022-12-02T01:47:08.735Z,9.68
2022-12-02T01:52:15.142Z,11.38
2022-12-02T01:57:28.769Z,9.95
2022-12-02T02:02:37.216Z,9.23
2022-12-02T02:07:46.214Z,9.27
2022-12-02T02:18:05.160Z,10.23
2022-12-02T02:23:22.536Z,10.50
2022-12-02T02:28:29.671Z,10.07
2022-12-02T02:33:37.041Z,9.70
2022-12-02T02:38:44.920Z,9.82
2022-12-02T02:43:51.498Z,8.80
2022-12-02T02:48:57.825Z,9.63
2022-12-02T02:54:05.653Z,9.25
2022-12-02T02:59:15.836Z,9.35
2022-12-02T03:04:26.008Z,8.45
2022-12-02T03:09:33.750Z,8.57
2022-12-02T03:14:40.307Z,8.63
2022-12-02T03:19:47.098Z,8.15
2022-12-02T03:24:54.829Z,8.13
2022-12-02T03:30:01.480Z,9.85
2022-12-02T03:35:11.157Z,9.50
2022-12-02T03:40:19.100Z,9.23
2022-12-02T03:45:26.919Z,7.13
2022-12-02T03:50:32.993Z,8.98
2022-12-02T03:55:40.540Z,8.90
2022-12-02T04:00:46.748Z,9.95
2022-12-02T04:05:52.724Z,8.85
2022-12-02T04:11:00.886Z,9.07
2022-12-02T04:16:07.945Z,8.73
2022-12-02T04:21:14.182Z,9.18
2022-12-02T04:26:22.591Z,8.60
2022-12-02T04:31:28.855Z,6.50
2022-12-02T04:36:35.596Z,8.35
2022-12-02T04:41:43.510Z,8.10
2022-12-02T04:46:49.945Z,8.87
2022-12-02T04:51:56.358Z,8.43
2022-12-02T04:57:03.926Z,8.75
2022-12-02T05:02:09.996Z,9.93
2022-12-02T05:07:16.430Z,10.30
2022-12-02T05:12:24.509Z,9.70
2022-12-02T05:17:31.599Z,8.77
2022-12-02T05:22:39.063Z,8.65
2022-12-02T05:27:46.697Z,9.45
2022-12-02T05:32:53.055Z,10.00
2022-12-02T05:38:04.588Z,9.50
2022-12-02T05:43:22.024Z,10.38
2022-12-02T05:48:36.731Z,9.95
2022-12-02T05:53:45.254Z,9.80
2022-12-02T05:58:52.934Z,9.82
2022-12-02T06:04:00.061Z,10.00
2022-12-02T06:09:15.440Z,10.40
2022-12-02T06:14:26.014Z,10.15
2022-12-02T06:19:42.209Z,10.32
2022-12-02T06:24:48.823Z,8.82
2022-12-02T06:30:03.319Z,9.95
2022-12-02T06:35:25.002Z,10.35
2022-12-02T06:40:34.210Z,8.65
2022-12-02T06:45:43.141Z,9.32
2022-12-02T06:50:50.998Z,8.82
2022-12-02T06:56:03.114Z,9.10
2022-12-02T07:01:30.421Z,8.25
2022-12-02T07:06:40.500Z,8.40
2022-12-02T07:11:53.705Z,8.38
2022-12-02T07:17:04.454Z,9.52
2022-12-02T07:22:18.241Z,8.52
2022-12-02T07:27:28.017Z,9.70
2022-12-02T07:32:35.509Z,8.93
2022-12-02T07:37:41.576Z,8.25
2022-12-02T07:42:48.245Z,7.22
2022-12-02T07:47:55.831Z,8.63
2022-12-02T07:53:02.485Z,7.95
2022-12-02T07:58:09.327Z,8.77
2022-12-02T08:03:16.929Z,8.55
2022-12-02T08:08:24.108Z,10.02
2022-12-02T08:13:30.211Z,10.13
2022-12-02T08:18:37.667Z,12.18
2022-12-02T08:23:43.609Z,11.30
2022-12-02T08:28:53.921Z,9.63
2022-12-02T08:34:06.808Z,9.85
2022-12-02T08:39:13.155Z,9.48
2022-12-02T08:44:19.460Z,12.18
2022-12-02T08:49:27.877Z,12.40
2022-12-02T08:54:34.086Z,10.38
2022-12-02T08:59:40.081Z,8.48
2022-12-02T09:04:47.491Z,12.73
2022-12-02T09:09:53.596Z,9.75
2022-12-02T09:14:59.744Z,10.75
2022-12-02T09:20:08.773Z,9.48
2022-12-02T09:25:16.073Z,9.43
2022-12-02T09:30:22.620Z,9.38
2022-12-02T09:35:30.481Z,9.45
2022-12-02T09:40:37.623Z,9.93
2022-12-02T09:45:45.028Z,11.50
2022-12-02T09:50:52.997Z,10.20
2022-12-02T09:55:59.764Z,10.30
2022-12-02T10:01:10.352Z,11.57
2022-12-02T10:06:23.537Z,10.77
2022-12-02T10:11:32.974Z,12.27
2022-12-02T10:16:40.719Z,11.80
2022-12-02T10:21:53.526Z,10.20
2022-12-02T10:27:01.510Z,11.07
2022-12-02T10:32:22.091Z,11.30
2022-12-02T10:37:33.969Z,9.63
2022-12-02T10:42:40.304Z,10.82
2022-12-02T10:47:47.634Z,10.23
2022-12-02T10:53:00.358Z,10.32
2022-12-02T10:58:06.688Z,10.30
2022-12-02T11:03:12.881Z,9.98
2022-12-02T11:08:24.592Z,11.38
2022-12-02T11:13:54.057Z,11.10
2022-12-02T11:19:06.352Z,12.02
2022-12-02T11:24:39.471Z,12.75
2022-12-02T11:30:24.736Z,11.10
2022-12-02T11:36:13.692Z,11.38
2022-12-02T11:41:23.288Z,12.55
2022-12-02T11:46:49.957Z,13.23
2022-12-02T11:52:21.067Z,11.98
2022-12-02T11:57:32.654Z,12.48
2022-12-02T12:02:38.939Z,14.95
2022-12-02T12:07:48.137Z,11.50
2022-12-02T12:13:22.704Z,11.70
2022-12-02T12:18:48.199Z,12.98
2022-12-02T12:23:54.150Z,10.68
2022-12-02T12:29:06.818Z,12.55
2022-12-02T12:34:13.804Z,12.55
2022-12-02T12:39:21.671Z,13.75
2022-12-02T12:44:31.219Z,12.55
2022-12-02T12:49:38.094Z,15.73
2022-12-02T12:54:50.789Z,14.65
2022-12-02T12:59:58.799Z,13.43
2022-12-02T13:05:05.461Z,13.70
2022-12-02T13:10:13.556Z,14.40
2022-12-02T13:15:21.982Z,11.20
2022-12-02T13:20:28.772Z,13.93
2022-12-02T13:25:35.304Z,13.13
2022-12-02T13:30:43.243Z,15.55
2022-12-02T13:35:49.605Z,16.10
2022-12-02T13:40:56.132Z,14.90
2022-12-02T13:46:04.382Z,13.50
2022-12-02T13:51:10.988Z,15.80
2022-12-02T13:56:17.370Z,12.70
2022-12-02T14:01:25.805Z,12.05
2022-12-02T14:06:32.530Z,13.60
2022-12-02T14:11:39.034Z,13.20
2022-12-02T14:16:47.824Z,12.93
2022-12-02T14:21:54.099Z,13.20
2022-12-02T14:27:00.772Z,12.85
2022-12-02T14:32:09.262Z,13.20
2022-12-02T14:37:17.364Z,14.25
2022-12-02T14:42:23.796Z,14.45
2022-12-02T14:47:31.898Z,15.27
2022-12-02T14:52:38.349Z,13.07
2022-12-02T14:57:44.764Z,12.93
2022-12-02T15:02:52.718Z,14.98
2022-12-02T15:07:59.195Z,11.10
2022-12-02T15:13:05.809Z,15.45
2022-12-02T15:18:13.854Z,14.02
2022-12-02T15:23:20.758Z,15.32
2022-12-02T15:28:27.636Z,14.18
2022-12-02T15:33:35.844Z,15.70
2022-12-02T15:38:43.178Z,16.37
2022-12-02T15:43:53.555Z,13.40
2022-12-02T15:49:02.535Z,13.27
2022-12-02T15:54:09.204Z,16.23
2022-12-02T15:59:17.004Z,13.85
2022-12-02T16:04:25.056Z,13.18
2022-12-02T16:09:32.454Z,15.52
2022-12-02T16:14:39.285Z,14.18
2022-12-02T16:19:47.582Z,13.77
2022-12-02T16:24:54.803Z,14.68
2022-12-02T16:30:01.926Z,15.10
2022-12-02T16:35:12.161Z,16.15
2022-12-02T16:40:19.580Z,15.93
2022-12-02T16:45:26.856Z,14.53
2022-12-02T16:50:35.290Z,15.90
2022-12-02T16:55:41.458Z,16.67
2022-12-02T17:00:48.480Z,15.02
2022-12-02T17:05:56.248Z,18.73
2022-12-02T17:11:03.220Z,15.63
2022-12-02T17:16:11.902Z,14.35
2022-12-02T17:21:20.105Z,15.27
2022-12-02T17:26:26.289Z,14.23
2022-12-02T17:31:35.091Z,14.20
2022-12-02T17:36:43.622Z,17.40
2022-12-02T17:41:50.585Z,23.30
2022-12-02T17:46:58.700Z,17.83
2022-12-02T17:52:19.763Z,18.70
2022-12-02T17:57:27.962Z,21.08
2022-12-02T18:02:36.122Z,18.00
2022-12-02T18:07:44.364Z,15.80
2022-12-02T18:12:51.244Z,15.10
2022-12-02T18:17:58.191Z,13.93
2022-12-02T18:23:07.660Z,16.45
2022-12-02T18:28:14.145Z,18.05
2022-12-02T18:33:20.677Z,17.73
2022-12-02T18:38:29.635Z,18.02
2022-12-02T18:43:39.264Z,16.63
2022-12-02T18:48:46.922Z,17.38
2022-12-02T18:54:09.609Z,17.50
2022-12-02T18:59:17.883Z,14.60
2022-12-02T19:04:26.077Z,16.98
2022-12-02T19:09:34.652Z,17.90
2022-12-02T19:14:47.819Z,17.05
2022-12-02T19:19:54.862Z,14.88
2022-12-02T19:25:04.794Z,16.33
2022-12-02T19:30:14.157Z,13.93
2022-12-02T19:35:23.102Z,17.63
2022-12-02T19:40:42.773Z,14.45
2022-12-02T19:45:51.960Z,15.68
2022-12-02T19:50:59.444Z,14.50
2022-12-02T19:56:09.804Z,14.68
2022-12-02T20:06:25.037Z,15.27
2022-12-02T20:11:33.852Z,14.25
2022-12-02T20:16:40.615Z,15.55
2022-12-02T20:21:48.222Z,16.00
2022-12-02T20:26:57.633Z,15.68
2022-12-02T20:32:11.192Z,14.82
2022-12-02T20:37:18.499Z,15.57
2022-12-02T20:42:28.401Z,16.27
2022-12-02T20:47:36.636Z,18.42
2022-12-02T20:52:49.624Z,17.70
2022-12-02T20:58:00.589Z,16.67
2022-12-02T21:03:08.439Z,16.05
2022-12-02T21:08:18.729Z,17.67
2022-12-02T21:13:28.889Z,16.40
2022-12-02T21:18:38.291Z,16.05
2022-12-02T21:23:47.713Z,16.20
2022-12-02T21:28:57.857Z,16.45
2022-12-02T21:34:05.366Z,16.25
2022-12-02T21:39:12.476Z,16.75
2022-12-02T21:44:23.196Z,16.48
2022-12-02T21:49:30.334Z,14.55
2022-12-02T21:54:37.519Z,13.90
2022-12-02T21:59:46.441Z,15.07
2022-12-02T22:04:53.594Z,15.13
2022-12-02T22:10:00.336Z,14.02
2022-12-02T22:15:10.825Z,14.85
2022-12-02T22:20:19.801Z,14.10
2022-12-02T22:25:26.623Z,15.45
2022-12-02T22:30:34.612Z,14.32
2022-12-02T22:35:41.271Z,14.53
2022-12-02T22:40:48.667Z,15.73
2022-12-02T22:45:56.835Z,13.25
2022-12-02T22:51:03.493Z,13.18
2022-12-02T22:56:10.052Z,14.43
2022-12-02T23:01:17.995Z,15.43
2022-12-02T23:06:24.597Z,13.75
2022-12-02T23:11:30.891Z,16.27
2022-12-02T23:16:38.631Z,15.05
2022-12-02T23:21:44.898Z,15.43
2022-12-02T23:26:52.432Z,16.13
2022-12-02T23:32:00.693Z,16.42
2022-12-02T23:37:07.049Z,14.73
2022-12-02T23:42:15.338Z,15.90
2022-12-02T23:47:23.018Z,12.40
2022-12-02T23:52:29.557Z,15.52
2022-12-02T23:57:35.828Z,16.90
